createdAt,value
2019-05-26T00:00:49.471Z,82.60
2019-05-26T00:01:54.484Z,82.74
2019-05-26T00:03:00.605Z,82.92
2019-05-26T00:04:05.969Z,82.96
2019-05-26T00:05:10.864Z,82.99
2019-05-26T00:06:16.305Z,82.99
2019-05-26T00:07:30.298Z,82.93
2019-05-26T00:08:27.527Z,82.98
2019-05-26T00:09:32.129Z,83.04
2019-05-26T00:10:37.212Z,82.81
2019-05-26T00:11:41.669Z,82.94
2019-05-26T00:12:47.454Z,83.05
2019-05-26T00:13:52.006Z,83.05
2019-05-26T00:14:57.056Z,83.10
2019-05-26T00:16:01.572Z,83.19
2019-05-26T00:17:06.620Z,83.34
2019-05-26T00:18:11.205Z,83.28
2019-05-26T00:19:16.227Z,83.29
2019-05-26T00:20:21.018Z,83.29
2019-05-26T00:21:26.337Z,83.23
2019-05-26T00:22:30.831Z,83.04
2019-05-26T00:23:36.304Z,82.98
2019-05-26T00:24:40.814Z,82.98
2019-05-26T00:25:45.895Z,83.01
2019-05-26T00:26:50.467Z,83.15
2019-05-26T00:27:55.546Z,83.18
2019-05-26T00:29:00.259Z,83.21
2019-05-26T00:30:10.502Z,83.22
2019-05-26T00:31:14.925Z,83.18
2019-05-26T00:32:19.996Z,83.33
2019-05-26T00:33:24.522Z,83.32
2019-05-26T00:34:29.619Z,83.40
2019-05-26T00:35:34.110Z,83.50
2019-05-26T00:36:39.552Z,83.40
2019-05-26T00:37:49.858Z,83.39
2019-05-26T00:38:51.007Z,83.52
2019-05-26T00:39:55.696Z,83.44
2019-05-26T00:41:00.804Z,83.46
2019-05-26T00:42:05.904Z,83.51
2019-05-26T00:43:11.048Z,83.65
2019-05-26T00:44:15.529Z,83.68
2019-05-26T00:45:21.307Z,83.82
2019-05-26T00:46:25.847Z,83.84
2019-05-26T00:47:30.846Z,84.05
2019-05-26T00:48:35.447Z,84.15
2019-05-26T00:49:40.600Z,84.32
2019-05-26T00:50:45.992Z,84.32
2019-05-26T00:51:51.332Z,84.30
2019-05-26T00:52:56.871Z,84.25
2019-05-26T00:54:02.103Z,84.37
2019-05-26T00:55:10.352Z,84.41
2019-05-26T00:56:15.411Z,84.46
2019-05-26T00:57:19.896Z,84.70
2019-05-26T00:58:25.569Z,84.73
2019-05-26T00:59:30.290Z,84.61
2019-05-26T01:00:43.715Z,84.54
2019-05-26T01:01:48.195Z,84.63
2019-05-26T01:02:54.216Z,84.52
2019-05-26T01:03:58.688Z,84.72
2019-05-26T01:05:03.956Z,84.70
2019-05-26T01:06:08.508Z,84.61
2019-05-26T01:07:13.884Z,84.41
2019-05-26T01:08:18.780Z,84.51
2019-05-26T01:09:23.804Z,84.56
2019-05-26T01:10:28.288Z,84.60
2019-05-26T01:11:33.290Z,84.67
2019-05-26T01:12:38.067Z,84.81
2019-05-26T01:13:43.073Z,85.01
2019-05-26T01:14:47.585Z,85.27
2019-05-26T01:15:53.985Z,85.40
2019-05-26T01:16:58.737Z,85.67
2019-05-26T01:18:04.051Z,85.81
2019-05-26T01:19:10.628Z,85.88
2019-05-26T01:20:17.509Z,86.02
2019-05-26T01:21:22.166Z,86.21
2019-05-26T01:22:27.189Z,86.34
2019-05-26T01:23:31.681Z,86.36
2019-05-26T01:24:36.915Z,86.48
2019-05-26T01:25:42.375Z,86.58
2019-05-26T01:26:47.457Z,86.61
2019-05-26T01:27:51.878Z,86.71
2019-05-26T01:28:57.065Z,86.79
2019-05-26T01:30:01.641Z,86.88
2019-05-26T01:31:06.809Z,87.07
2019-05-26T01:32:11.265Z,87.22
2019-05-26T01:33:16.321Z,87.38
2019-05-26T01:34:20.835Z,87.40
2019-05-26T01:35:25.836Z,87.39
2019-05-26T01:36:30.492Z,87.45
2019-05-26T01:37:36.443Z,87.70
2019-05-26T01:38:41.605Z,87.88
2019-05-26T01:39:46.758Z,87.94
2019-05-26T01:40:51.183Z,87.98
2019-05-26T01:41:56.192Z,88.06
2019-05-26T01:43:00.615Z,88.18
2019-05-26T01:44:06.025Z,88.24
2019-05-26T01:45:11.974Z,88.30
2019-05-26T01:46:16.981Z,88.39
2019-05-26T01:47:21.402Z,88.41
2019-05-26T01:48:26.405Z,88.46
2019-05-26T01:49:31.248Z,88.56
2019-05-26T01:50:36.435Z,88.62
2019-05-26T01:51:41.305Z,88.72
2019-05-26T01:52:46.699Z,88.77
2019-05-26T01:53:51.230Z,88.81
2019-05-26T01:54:56.265Z,88.89
2019-05-26T01:56:00.753Z,88.88
2019-05-26T01:57:06.798Z,88.98
2019-05-26T01:58:11.217Z,89.08
2019-05-26T01:59:16.230Z,89.23
2019-05-26T02:00:21.273Z,89.33
2019-05-26T02:01:26.278Z,89.48
2019-05-26T02:02:30.777Z,89.47
2019-05-26T02:03:35.784Z,89.59
2019-05-26T02:04:40.362Z,89.51
2019-05-26T02:05:45.435Z,89.55
2019-05-26T02:06:49.919Z,89.57
2019-05-26T02:07:55.366Z,89.66
2019-05-26T02:08:59.858Z,89.67
2019-05-26T02:10:10.087Z,89.70
2019-05-26T02:11:14.912Z,89.79
2019-05-26T02:12:19.954Z,89.77
2019-05-26T02:13:24.376Z,89.93
2019-05-26T02:14:29.697Z,90.14
2019-05-26T02:15:34.504Z,90.14
2019-05-26T02:16:39.556Z,90.51
2019-05-26T02:17:43.973Z,90.24
2019-05-26T02:18:49.046Z,90.39
2019-05-26T02:19:53.485Z,90.37
2019-05-26T02:20:58.494Z,90.50
2019-05-26T02:22:03.235Z,90.79
2019-05-26T02:23:08.311Z,90.79
2019-05-26T02:24:12.796Z,90.60
2019-05-26T02:25:18.471Z,90.58
2019-05-26T02:26:22.957Z,90.56
2019-05-26T02:27:28.038Z,90.52
2019-05-26T02:28:32.592Z,90.55
2019-05-26T02:29:37.601Z,90.70
2019-05-26T02:30:42.393Z,90.74
2019-05-26T02:31:47.717Z,90.64
2019-05-26T02:32:52.226Z,90.55
2019-05-26T02:33:57.250Z,90.89
2019-05-26T02:35:01.745Z,90.89
2019-05-26T02:36:07.003Z,91.05
2019-05-26T02:37:11.439Z,91.05
2019-05-26T02:38:16.540Z,90.88
2019-05-26T02:39:20.997Z,90.91
2019-05-26T02:40:26.259Z,90.87
2019-05-26T02:41:31.024Z,90.94
2019-05-26T02:42:36.530Z,90.95
2019-05-26T02:43:40.967Z,90.97
2019-05-26T02:44:45.993Z,90.99
2019-05-26T02:45:50.429Z,91.04
2019-05-26T02:46:55.558Z,90.90
2019-05-26T02:48:00.257Z,90.70
2019-05-26T02:49:05.547Z,90.73
2019-05-26T02:50:10.421Z,90.90
2019-05-26T02:51:15.425Z,90.99
2019-05-26T02:52:19.852Z,91.14
2019-05-26T02:53:24.937Z,91.14
2019-05-26T02:54:29.349Z,90.93
2019-05-26T02:55:34.511Z,90.93
2019-05-26T02:56:39.981Z,91.36
2019-05-26T02:57:45.357Z,91.38
2019-05-26T02:58:49.850Z,91.40
2019-05-26T02:59:54.846Z,91.38
2019-05-26T03:00:59.432Z,91.44
2019-05-26T03:02:05.009Z,91.44
2019-05-26T03:03:09.770Z,91.33
2019-05-26T03:04:14.902Z,91.32
2019-05-26T03:05:19.589Z,91.40
2019-05-26T03:06:26.510Z,91.35
2019-05-26T03:07:31.776Z,91.46
2019-05-26T03:08:38.691Z,91.22
2019-05-26T03:09:44.872Z,91.19
2019-05-26T03:10:52.035Z,91.11
2019-05-26T03:11:59.171Z,91.31
2019-05-26T03:13:06.395Z,91.31
2019-05-26T03:14:11.900Z,91.02
2019-05-26T03:15:17.387Z,91.02
2019-05-26T03:16:22.233Z,91.02
2019-05-26T03:17:28.991Z,91.03
2019-05-26T03:18:35.342Z,91.04
2019-05-26T03:19:42.472Z,91.06
2019-05-26T03:20:47.079Z,90.99
2019-05-26T03:21:55.137Z,90.97
2019-05-26T03:23:02.736Z,91.00
2019-05-26T03:24:07.828Z,91.11
2019-05-26T03:25:13.118Z,91.18
2019-05-26T03:26:20.339Z,90.99
2019-05-26T03:27:24.759Z,90.77
2019-05-26T03:28:29.840Z,90.77
2019-05-26T03:29:34.602Z,90.74
2019-05-26T03:30:40.675Z,90.68
2019-05-26T03:31:45.188Z,90.58
2019-05-26T03:32:50.179Z,90.48
2019-05-26T03:33:54.607Z,90.37
2019-05-26T03:34:59.625Z,90.23
2019-05-26T03:36:04.138Z,90.17
2019-05-26T03:37:09.620Z,90.09
2019-05-26T03:38:14.029Z,90.06
2019-05-26T03:39:19.036Z,90.20
2019-05-26T03:40:23.940Z,90.03
2019-05-26T03:41:28.965Z,89.92
2019-05-26T03:42:33.457Z,89.90
2019-05-26T03:43:38.504Z,89.76
2019-05-26T03:44:42.924Z,89.60
2019-05-26T03:46:03.162Z,89.44
2019-05-26T03:47:07.948Z,89.26
2019-05-26T03:48:13.095Z,89.00
2019-05-26T03:49:17.533Z,88.77
2019-05-26T03:50:22.872Z,88.50
2019-05-26T03:51:27.301Z,88.50
2019-05-26T03:52:32.297Z,88.31
2019-05-26T03:53:36.727Z,88.03
2019-05-26T03:54:42.048Z,87.84
2019-05-26T03:55:46.470Z,87.67
2019-05-26T03:56:51.506Z,87.72
2019-05-26T03:57:55.912Z,87.48
2019-05-26T03:59:02.063Z,87.30
2019-05-26T04:00:07.886Z,87.12
2019-05-26T04:01:13.085Z,87.10
2019-05-26T04:02:17.674Z,87.01
2019-05-26T04:03:22.688Z,86.80
2019-05-26T04:04:27.112Z,86.52
2019-05-26T04:05:32.193Z,86.41
2019-05-26T04:06:36.614Z,86.28
2019-05-26T04:07:41.612Z,86.00
2019-05-26T04:08:46.049Z,85.65
2019-05-26T04:10:03.901Z,85.43
2019-05-26T04:10:57.188Z,85.32
2019-05-26T04:12:02.221Z,85.24
2019-05-26T04:13:06.644Z,85.02
2019-05-26T04:14:11.652Z,85.09
2019-05-26T04:15:16.934Z,85.20
2019-05-26T04:16:21.943Z,85.06
2019-05-26T04:17:27.740Z,84.73
2019-05-26T04:18:33.854Z,84.49
2019-05-26T04:19:38.675Z,84.23
2019-05-26T04:20:45.933Z,84.03
2019-05-26T04:21:49.832Z,84.01
2019-05-26T04:22:55.909Z,84.15
2019-05-26T04:24:00.342Z,83.94
2019-05-26T04:25:07.213Z,83.77
2019-05-26T04:26:11.659Z,83.50
2019-05-26T04:27:16.682Z,83.31
2019-05-26T04:28:21.155Z,83.03
2019-05-26T04:29:26.158Z,82.81
2019-05-26T04:30:30.598Z,82.84
2019-05-26T04:31:35.598Z,82.79
2019-05-26T04:32:40.034Z,83.20
2019-05-26T04:33:45.103Z,82.97
2019-05-26T04:34:49.610Z,82.50
2019-05-26T04:35:54.634Z,82.31
2019-05-26T04:36:59.152Z,82.58
2019-05-26T04:38:04.161Z,82.59
2019-05-26T04:39:08.591Z,82.42
2019-05-26T04:40:26.735Z,82.28
2019-05-26T04:41:19.931Z,82.19
2019-05-26T04:42:24.953Z,82.26
2019-05-26T04:43:29.374Z,81.90
2019-05-26T04:44:34.381Z,81.97
2019-05-26T04:45:38.814Z,82.09
2019-05-26T04:46:43.818Z,81.92
2019-05-26T04:47:48.257Z,82.12
2019-05-26T04:48:53.579Z,82.37
2019-05-26T04:49:58.070Z,82.42
2019-05-26T04:51:03.089Z,82.00
2019-05-26T04:52:07.525Z,82.15
2019-05-26T04:53:12.539Z,81.65
2019-05-26T04:54:16.965Z,82.00
2019-05-26T04:55:21.965Z,81.89
2019-05-26T04:56:27.004Z,81.50
2019-05-26T04:57:32.041Z,81.65
2019-05-26T04:58:36.467Z,80.70
2019-05-26T04:59:41.478Z,81.10
2019-05-26T05:00:45.893Z,81.00
2019-05-26T05:01:50.896Z,80.85
2019-05-26T05:02:55.336Z,80.95
2019-05-26T05:04:00.628Z,80.85
2019-05-26T05:05:06.971Z,80.76
2019-05-26T05:06:11.992Z,80.80
2019-05-26T05:07:16.448Z,80.69
2019-05-26T05:08:21.460Z,80.68
2019-05-26T05:09:25.885Z,81.20
2019-05-26T05:10:41.828Z,80.26
2019-05-26T05:11:37.077Z,80.33
2019-05-26T05:12:42.096Z,79.75
2019-05-26T05:13:46.521Z,79.86
2019-05-26T05:14:51.573Z,80.16
2019-05-26T05:15:56.053Z,79.85
2019-05-26T05:17:01.140Z,79.71
2019-05-26T05:18:05.648Z,79.23
2019-05-26T05:19:11.023Z,78.84
2019-05-26T05:20:15.789Z,79.43
2019-05-26T05:21:20.806Z,79.23
2019-05-26T05:22:25.231Z,79.13
2019-05-26T05:23:30.259Z,78.74
2019-05-26T05:24:34.749Z,78.87
2019-05-26T05:25:39.821Z,78.35
2019-05-26T05:26:44.594Z,77.89
2019-05-26T05:27:49.672Z,77.80
2019-05-26T05:28:54.469Z,77.53
2019-05-26T05:29:59.548Z,77.02
2019-05-26T05:31:04.036Z,77.18
2019-05-26T05:32:09.055Z,76.62
2019-05-26T05:33:13.564Z,76.79
2019-05-26T05:34:18.634Z,76.34
2019-05-26T05:35:24.034Z,75.88
2019-05-26T05:36:29.107Z,75.53
2019-05-26T05:37:33.601Z,76.09
2019-05-26T05:38:39.664Z,75.51
2019-05-26T05:39:44.084Z,75.52
2019-05-26T05:40:59.090Z,74.87
2019-05-26T05:41:55.583Z,74.51
2019-05-26T05:43:00.631Z,75.14
2019-05-26T05:44:05.169Z,74.73
2019-05-26T05:45:11.256Z,74.59
2019-05-26T05:46:15.742Z,74.78
2019-05-26T05:47:20.753Z,75.25
2019-05-26T05:48:25.262Z,74.80
2019-05-26T05:49:30.599Z,74.92
2019-05-26T05:50:38.913Z,73.81
2019-05-26T05:51:41.841Z,74.49
2019-05-26T05:52:46.262Z,74.35
2019-05-26T05:53:51.284Z,74.61
2019-05-26T05:54:56.038Z,74.37
2019-05-26T05:56:01.565Z,74.64
2019-05-26T05:57:06.092Z,73.78
2019-05-26T05:58:11.185Z,74.22
2019-05-26T05:59:15.601Z,73.93
2019-05-26T06:00:21.116Z,74.21
2019-05-26T06:01:25.822Z,73.08
2019-05-26T06:02:30.893Z,73.80
2019-05-26T06:03:35.330Z,73.13
2019-05-26T06:04:40.338Z,73.26
2019-05-26T06:05:44.765Z,73.65
2019-05-26T06:06:50.131Z,73.02
2019-05-26T06:07:55.048Z,72.57
2019-05-26T06:09:00.124Z,71.69
2019-05-26T06:10:07.841Z,71.12
2019-05-26T06:11:16.851Z,70.71
2019-05-26T06:12:20.087Z,70.44
2019-05-26T06:13:25.182Z,71.16
2019-05-26T06:14:29.745Z,70.79
2019-05-26T06:15:35.132Z,70.12
2019-05-26T06:16:39.960Z,70.05
2019-05-26T06:17:44.966Z,69.70
2019-05-26T06:18:49.477Z,68.98
2019-05-26T06:19:54.538Z,69.15
2019-05-26T06:20:59.029Z,67.52
2019-05-26T06:22:04.459Z,67.86
2019-05-26T06:23:09.953Z,67.94
2019-05-26T06:24:14.977Z,67.08
2019-05-26T06:25:19.629Z,66.99
2019-05-26T06:26:24.623Z,67.22
2019-05-26T06:27:29.900Z,67.17
2019-05-26T06:28:34.987Z,65.87
2019-05-26T06:29:55.966Z,65.52
2019-05-26T06:30:49.523Z,65.33
2019-05-26T06:31:54.363Z,64.38
2019-05-26T06:32:59.640Z,65.50
2019-05-26T06:34:04.355Z,64.88
2019-05-26T06:35:09.799Z,64.87
2019-05-26T06:36:14.221Z,65.12
2019-05-26T06:37:19.233Z,65.28
2019-05-26T06:38:24.028Z,65.14
2019-05-26T06:39:29.096Z,63.84
2019-05-26T06:40:33.880Z,62.78
2019-05-26T06:41:38.950Z,63.19
2019-05-26T06:42:43.368Z,64.10
2019-05-26T06:43:48.478Z,63.49
2019-05-26T06:44:54.051Z,62.97
2019-05-26T06:45:59.711Z,62.65
2019-05-26T06:47:04.130Z,62.55
2019-05-26T06:48:09.430Z,63.04
2019-05-26T06:49:14.113Z,63.00
2019-05-26T06:50:20.836Z,62.42
2019-05-26T06:51:25.258Z,61.96
2019-05-26T06:52:30.338Z,62.22
2019-05-26T06:53:37.431Z,62.63
2019-05-26T06:54:41.756Z,62.17
2019-05-26T06:55:46.448Z,61.84
2019-05-26T06:56:51.452Z,60.41
2019-05-26T06:57:56.190Z,60.65
2019-05-26T06:59:02.826Z,60.66
2019-05-26T07:00:07.740Z,59.66
2019-05-26T07:01:12.741Z,60.54
2019-05-26T07:02:17.225Z,59.62
2019-05-26T07:03:22.515Z,59.74
2019-05-26T07:04:26.938Z,59.27
2019-05-26T07:05:32.008Z,59.31
2019-05-26T07:06:39.221Z,59.44
2019-05-26T07:07:44.221Z,59.49
2019-05-26T07:08:48.657Z,58.52
2019-05-26T07:09:53.661Z,58.61
2019-05-26T07:10:58.148Z,57.68
2019-05-26T07:12:03.494Z,56.26
2019-05-26T07:13:07.923Z,57.07
2019-05-26T07:14:13.320Z,57.21
2019-05-26T07:15:18.299Z,56.96
2019-05-26T07:16:36.787Z,56.92
2019-05-26T07:17:29.951Z,57.52
2019-05-26T07:18:35.030Z,57.97
2019-05-26T07:19:39.467Z,57.87
2019-05-26T07:20:44.743Z,57.25
2019-05-26T07:21:49.152Z,57.18
2019-05-26T07:22:54.220Z,56.91
2019-05-26T07:23:58.664Z,56.69
2019-05-26T07:25:04.417Z,57.22
2019-05-26T07:26:09.104Z,57.29
2019-05-26T07:27:14.172Z,57.59
2019-05-26T07:28:18.591Z,56.64
2019-05-26T07:29:23.620Z,56.98
2019-05-26T07:30:28.036Z,56.51
2019-05-26T07:31:33.048Z,55.96
2019-05-26T07:32:37.687Z,56.49
2019-05-26T07:33:42.684Z,55.13
2019-05-26T07:34:47.120Z,56.14
2019-05-26T07:35:52.116Z,55.75
2019-05-26T07:36:56.873Z,54.42
2019-05-26T07:38:01.870Z,54.88
2019-05-26T07:39:08.697Z,55.25
2019-05-26T07:40:14.321Z,55.84
2019-05-26T07:41:18.720Z,55.11
2019-05-26T07:42:23.996Z,55.32
2019-05-26T07:43:28.534Z,54.97
2019-05-26T07:44:33.511Z,55.26
2019-05-26T07:45:38.066Z,54.38
2019-05-26T07:46:43.131Z,54.45
2019-05-26T07:47:47.930Z,53.49
2019-05-26T07:48:53.081Z,52.76
2019-05-26T07:49:57.577Z,53.43
2019-05-26T07:51:02.571Z,53.48
2019-05-26T07:52:06.980Z,52.44
2019-05-26T07:53:12.323Z,53.98
2019-05-26T07:54:25.660Z,52.79
2019-05-26T07:55:23.808Z,52.55
2019-05-26T07:56:28.284Z,51.81
2019-05-26T07:57:33.284Z,51.37
2019-05-26T07:58:37.763Z,51.44
2019-05-26T07:59:42.790Z,51.78
2019-05-26T08:00:47.206Z,52.45
2019-05-26T08:02:00.275Z,52.74
2019-05-26T08:03:04.735Z,51.23
2019-05-26T08:04:09.732Z,51.91
2019-05-26T08:05:14.501Z,52.45
2019-05-26T08:06:19.803Z,50.93
2019-05-26T08:07:24.221Z,51.36
2019-05-26T08:08:29.285Z,51.34
2019-05-26T08:09:33.787Z,51.25
2019-05-26T08:10:38.857Z,51.29
2019-05-26T08:11:43.543Z,51.94
2019-05-26T08:12:48.553Z,51.46
2019-05-26T08:13:52.971Z,51.99
2019-05-26T08:14:58.090Z,52.94
2019-05-26T08:16:02.782Z,51.83
2019-05-26T08:17:07.937Z,51.52
2019-05-26T08:18:12.635Z,51.54
2019-05-26T08:19:17.974Z,52.44
2019-05-26T08:20:22.560Z,52.16
2019-05-26T08:21:27.899Z,51.06
2019-05-26T08:22:32.348Z,51.39
2019-05-26T08:23:37.633Z,50.67
2019-05-26T08:24:43.055Z,50.27
2019-05-26T08:25:48.079Z,50.77
2019-05-26T08:26:52.513Z,50.32
2019-05-26T08:27:57.733Z,50.33
2019-05-26T08:29:03.468Z,50.55
2019-05-26T08:30:09.202Z,51.85
2019-05-26T08:31:13.612Z,51.07
2019-05-26T08:32:18.886Z,51.20
2019-05-26T08:33:23.306Z,51.05
2019-05-26T08:34:28.668Z,51.28
2019-05-26T08:35:33.181Z,51.41
2019-05-26T08:36:39.779Z,50.73
2019-05-26T08:37:44.477Z,51.43
2019-05-26T08:38:49.472Z,51.00
2019-05-26T08:39:55.553Z,50.21
2019-05-26T08:41:00.553Z,50.82
2019-05-26T08:42:05.204Z,51.07
2019-05-26T08:43:10.202Z,49.81
2019-05-26T08:44:14.609Z,50.50
2019-05-26T08:45:23.287Z,50.66
2019-05-26T08:46:27.751Z,50.18
2019-05-26T08:47:32.747Z,50.83
2019-05-26T08:48:37.160Z,50.34
2019-05-26T08:49:42.168Z,49.11
2019-05-26T08:50:46.886Z,48.53
2019-05-26T08:51:52.687Z,49.10
2019-05-26T08:52:57.379Z,48.57
2019-05-26T08:54:02.394Z,49.06
2019-05-26T08:55:08.063Z,49.64
2019-05-26T08:56:13.416Z,50.10
2019-05-26T08:57:17.831Z,50.50
2019-05-26T08:58:23.144Z,50.17
2019-05-26T08:59:27.558Z,49.60
2019-05-26T09:00:32.780Z,48.48
2019-05-26T09:01:37.144Z,48.73
2019-05-26T09:02:42.221Z,48.64
2019-05-26T09:03:46.751Z,49.44
2019-05-26T09:04:51.837Z,48.42
2019-05-26T09:05:56.344Z,48.28
2019-05-26T09:07:01.352Z,49.08
2019-05-26T09:08:08.143Z,48.94
2019-05-26T09:09:12.950Z,48.68
2019-05-26T09:10:17.979Z,48.22
2019-05-26T09:11:23.835Z,48.26
2019-05-26T09:12:28.248Z,48.03
2019-05-26T09:13:33.254Z,48.68
2019-05-26T09:14:37.667Z,49.17
2019-05-26T09:15:43.926Z,48.72
2019-05-26T09:16:48.683Z,48.64
2019-05-26T09:17:53.807Z,48.78
2019-05-26T09:18:58.197Z,48.33
2019-05-26T09:20:03.197Z,47.52
2019-05-26T09:21:08.048Z,49.40
2019-05-26T09:22:14.010Z,47.87
2019-05-26T09:23:18.423Z,47.95
2019-05-26T09:24:23.703Z,47.35
2019-05-26T09:25:29.269Z,47.61
2019-05-26T09:26:34.288Z,48.07
2019-05-26T09:27:39.673Z,48.29
2019-05-26T09:28:44.745Z,48.05
2019-05-26T09:29:49.174Z,47.31
2019-05-26T09:30:54.189Z,47.79
2019-05-26T09:31:58.685Z,48.22
2019-05-26T09:33:04.099Z,48.68
2019-05-26T09:34:08.524Z,47.58
2019-05-26T09:35:13.760Z,48.03
2019-05-26T09:36:18.262Z,47.86
2019-05-26T09:37:23.530Z,47.79
2019-05-26T09:38:27.952Z,48.24
2019-05-26T09:39:33.022Z,48.07
2019-05-26T09:40:37.502Z,48.55
2019-05-26T09:41:42.824Z,48.22
2019-05-26T09:42:47.432Z,47.62
2019-05-26T09:43:52.507Z,46.81
2019-05-26T09:44:56.987Z,46.65
2019-05-26T09:46:02.387Z,45.05
2019-05-26T09:47:07.213Z,46.08
2019-05-26T09:48:12.282Z,46.05
2019-05-26T09:49:16.764Z,46.50
2019-05-26T09:50:22.173Z,46.82
2019-05-26T09:51:26.683Z,47.51
2019-05-26T09:52:31.684Z,47.40
2019-05-26T09:53:36.166Z,46.99
2019-05-26T09:54:41.522Z,47.71
2019-05-26T09:55:46.270Z,45.55
2019-05-26T09:56:51.577Z,45.47
2019-05-26T09:57:55.997Z,44.55
2019-05-26T09:59:00.995Z,45.57
2019-05-26T10:00:10.820Z,45.95
2019-05-26T10:01:15.979Z,45.73
2019-05-26T10:02:20.459Z,45.71
2019-05-26T10:03:25.531Z,46.48
2019-05-26T10:04:29.980Z,44.54
2019-05-26T10:05:35.348Z,45.20
2019-05-26T10:06:39.795Z,45.33
2019-05-26T10:07:44.935Z,44.50
2019-05-26T10:08:49.363Z,44.55
2019-05-26T10:09:54.360Z,45.60
2019-05-26T10:10:58.859Z,43.96
2019-05-26T10:12:03.949Z,44.31
2019-05-26T10:13:08.827Z,43.78
2019-05-26T10:14:13.828Z,44.46
2019-05-26T10:15:19.023Z,44.06
2019-05-26T10:16:24.111Z,43.35
2019-05-26T10:17:28.712Z,43.07
2019-05-26T10:18:33.789Z,44.41
2019-05-26T10:19:38.558Z,44.96
2019-05-26T10:20:43.829Z,44.06
2019-05-26T10:21:48.408Z,42.96
2019-05-26T10:22:53.471Z,42.48
2019-05-26T10:23:57.889Z,43.28
2019-05-26T10:25:02.952Z,44.08
2019-05-26T10:26:08.812Z,44.17
2019-05-26T10:27:13.913Z,44.67
2019-05-26T10:28:18.309Z,44.98
2019-05-26T10:29:23.316Z,45.57
2019-05-26T10:30:27.799Z,45.57
2019-05-26T10:31:33.103Z,44.17
2019-05-26T10:32:37.583Z,44.62
2019-05-26T10:33:42.979Z,44.26
2019-05-26T10:34:47.780Z,44.88
2019-05-26T10:35:52.801Z,43.06
2019-05-26T10:36:57.220Z,43.51
2019-05-26T10:38:02.292Z,43.54
2019-05-26T10:39:09.024Z,43.06
2019-05-26T10:40:15.172Z,43.37
2019-05-26T10:41:19.845Z,43.12
2019-05-26T10:42:24.874Z,42.64
2019-05-26T10:43:29.555Z,43.09
2019-05-26T10:44:34.630Z,42.49
2019-05-26T10:45:39.122Z,42.59
2019-05-26T10:46:44.148Z,43.25
2019-05-26T10:47:48.813Z,43.33
2019-05-26T10:48:53.841Z,43.41
2019-05-26T10:49:58.676Z,42.22
2019-05-26T10:51:06.772Z,41.81
2019-05-26T10:52:10.874Z,42.23
2019-05-26T10:53:15.890Z,42.33
2019-05-26T10:54:20.649Z,43.39
2019-05-26T10:55:25.658Z,43.56
2019-05-26T10:56:30.086Z,43.59
2019-05-26T10:57:35.248Z,44.40
2019-05-26T10:58:40.070Z,42.60
2019-05-26T10:59:45.416Z,42.22
2019-05-26T11:00:50.183Z,42.82
2019-05-26T11:01:55.228Z,43.15
2019-05-26T11:02:59.640Z,43.63
2019-05-26T11:04:05.084Z,43.67
2019-05-26T11:05:10.147Z,43.74
2019-05-26T11:06:15.156Z,43.89
2019-05-26T11:07:19.870Z,44.13
2019-05-26T11:08:25.389Z,44.35
2019-05-26T11:09:29.810Z,43.83
2019-05-26T11:10:34.884Z,43.19
2019-05-26T11:11:39.396Z,44.09
2019-05-26T11:12:44.420Z,43.84
2019-05-26T11:14:01.810Z,44.12
2019-05-26T11:14:55.639Z,43.77
2019-05-26T11:16:00.061Z,42.84
2019-05-26T11:17:05.315Z,43.21
2019-05-26T11:18:10.010Z,42.89
2019-05-26T11:19:15.148Z,42.37
2019-05-26T11:20:19.713Z,43.46
2019-05-26T11:21:24.992Z,41.22
2019-05-26T11:22:29.430Z,41.44
2019-05-26T11:23:34.499Z,42.02
2019-05-26T11:24:38.913Z,41.32
2019-05-26T11:25:44.654Z,41.23
2019-05-26T11:26:49.530Z,40.75
2019-05-26T11:27:54.647Z,41.05
2019-05-26T11:28:59.068Z,41.44
2019-05-26T11:30:05.917Z,42.24
2019-05-26T11:31:10.328Z,42.94
2019-05-26T11:32:15.346Z,41.74
2019-05-26T11:33:19.873Z,41.15
2019-05-26T11:34:25.024Z,42.16
2019-05-26T11:35:29.434Z,42.33
2019-05-26T11:36:34.506Z,42.20
2019-05-26T11:37:38.965Z,42.02
2019-05-26T11:38:44.016Z,41.77
2019-05-26T11:39:48.443Z,41.66
2019-05-26T11:40:54.568Z,39.02
2019-05-26T11:42:12.313Z,39.13
2019-05-26T11:43:16.126Z,39.12
2019-05-26T11:44:18.142Z,38.92
2019-05-26T11:45:19.705Z,38.08
2019-05-26T11:46:24.122Z,38.44
2019-05-26T11:47:29.148Z,36.66
2019-05-26T11:48:33.851Z,38.35
2019-05-26T11:49:39.162Z,37.65
2019-05-26T11:50:43.634Z,38.25
2019-05-26T11:51:48.632Z,37.61
2019-05-26T11:52:53.077Z,38.18
2019-05-26T11:53:58.082Z,38.00
2019-05-26T11:55:02.996Z,38.49
2019-05-26T11:56:08.617Z,38.95
2019-05-26T11:57:13.335Z,39.30
2019-05-26T11:58:18.462Z,40.05
2019-05-26T11:59:22.843Z,39.26
2019-05-26T12:00:28.056Z,39.83
2019-05-26T12:01:32.478Z,40.11
2019-05-26T12:02:37.569Z,40.11
2019-05-26T12:03:41.972Z,39.40
2019-05-26T12:04:47.053Z,40.35
2019-05-26T12:05:51.576Z,40.25
2019-05-26T12:06:56.647Z,40.15
2019-05-26T12:08:01.433Z,40.65
2019-05-26T12:09:09.482Z,39.82
2019-05-26T12:10:14.537Z,39.08
2019-05-26T12:11:19.689Z,39.22
2019-05-26T12:12:24.107Z,39.19
2019-05-26T12:13:29.221Z,38.47
2019-05-26T12:14:35.493Z,39.08
2019-05-26T12:15:40.686Z,38.55
2019-05-26T12:16:45.414Z,38.16
2019-05-26T12:17:50.443Z,38.36
2019-05-26T12:18:54.852Z,38.71
2019-05-26T12:19:59.861Z,38.29
2019-05-26T12:21:04.347Z,39.06
2019-05-26T12:22:09.422Z,38.54
2019-05-26T12:23:14.134Z,38.56
2019-05-26T12:24:19.136Z,39.01
2019-05-26T12:25:23.549Z,39.26
2019-05-26T12:26:28.553Z,39.46
2019-05-26T12:27:32.973Z,39.31
2019-05-26T12:28:38.537Z,39.49
2019-05-26T12:29:42.949Z,40.23
2019-05-26T12:30:47.942Z,40.01
2019-05-26T12:31:52.357Z,40.39
2019-05-26T12:32:57.748Z,40.34
2019-05-26T12:34:02.232Z,40.28
2019-05-26T12:35:09.476Z,40.58
2019-05-26T12:36:13.890Z,40.36
2019-05-26T12:37:18.906Z,40.70
2019-05-26T12:38:24.306Z,40.68
2019-05-26T12:39:29.301Z,39.92
2019-05-26T12:40:33.999Z,41.42
2019-05-26T12:41:39.067Z,39.99
2019-05-26T12:42:43.487Z,40.81
2019-05-26T12:43:48.777Z,40.17
2019-05-26T12:44:53.312Z,38.85
2019-05-26T12:45:58.312Z,38.83
2019-05-26T12:47:02.869Z,39.27
2019-05-26T12:48:08.006Z,40.11
2019-05-26T12:49:12.519Z,39.18
2019-05-26T12:50:18.094Z,38.66
2019-05-26T12:51:22.597Z,39.47
2019-05-26T12:52:27.663Z,39.38
2019-05-26T12:53:32.105Z,40.23
2019-05-26T12:54:37.373Z,39.40
2019-05-26T12:55:41.961Z,39.06
2019-05-26T12:56:47.600Z,39.24
2019-05-26T12:57:52.138Z,39.34
2019-05-26T12:58:57.158Z,40.34
2019-05-26T13:00:01.863Z,39.49
2019-05-26T13:01:07.170Z,38.98
2019-05-26T13:02:12.008Z,38.71
2019-05-26T13:03:17.285Z,38.65
2019-05-26T13:04:21.913Z,37.94
2019-05-26T13:05:27.110Z,37.85
2019-05-26T13:06:31.524Z,38.50
2019-05-26T13:07:38.127Z,38.80
2019-05-26T13:08:43.974Z,38.87
2019-05-26T13:09:48.965Z,38.03
2019-05-26T13:10:53.454Z,38.05
2019-05-26T13:11:58.737Z,37.96
2019-05-26T13:13:03.522Z,37.92
2019-05-26T13:14:08.870Z,38.31
2019-05-26T13:15:15.200Z,37.64
2019-05-26T13:16:20.487Z,37.46
2019-05-26T13:17:24.892Z,36.10
2019-05-26T13:18:29.902Z,37.24
2019-05-26T13:19:34.611Z,36.16
2019-05-26T13:20:39.765Z,36.14
2019-05-26T13:21:44.323Z,36.69
2019-05-26T13:22:49.394Z,36.62
2019-05-26T13:23:54.084Z,37.73
2019-05-26T13:24:59.082Z,37.90
2019-05-26T13:26:03.498Z,37.62
2019-05-26T13:27:08.571Z,37.43
2019-05-26T13:28:13.056Z,38.06
2019-05-26T13:29:18.402Z,37.36
2019-05-26T13:30:25.864Z,37.93
2019-05-26T13:31:30.932Z,36.48
2019-05-26T13:32:35.689Z,36.65
2019-05-26T13:33:40.688Z,36.86
2019-05-26T13:34:45.125Z,36.54
2019-05-26T13:35:50.207Z,36.39
2019-05-26T13:36:54.664Z,36.60
2019-05-26T13:37:59.955Z,36.44
2019-05-26T13:39:07.193Z,37.30
2019-05-26T13:40:12.766Z,37.70
2019-05-26T13:41:17.498Z,38.20
2019-05-26T13:42:22.875Z,37.56
2019-05-26T13:43:27.995Z,36.79
2019-05-26T13:44:34.009Z,37.69
2019-05-26T13:45:39.449Z,37.71
2019-05-26T13:46:44.844Z,37.37
2019-05-26T13:47:49.833Z,37.71
2019-05-26T13:48:55.387Z,38.12
2019-05-26T13:50:00.245Z,37.56
2019-05-26T13:51:06.291Z,38.08
2019-05-26T13:52:12.629Z,38.23
2019-05-26T13:53:18.358Z,38.17
2019-05-26T13:54:23.172Z,38.30
2019-05-26T13:55:28.664Z,38.42
2019-05-26T13:56:33.538Z,37.75
2019-05-26T13:57:39.484Z,38.23
2019-05-26T13:58:44.358Z,38.05